Reepham, United Kingdom
Current Conditions -  °F | °C
As of 3:50 AM on Sunday 23 Nov 2014 (Local Time) from EGXW Reporting Station
Light Rain Light Rain  
Wind Chill:   Ceiling: 5000
Heat Index:   Visibility: 6mi
Dew Point:   Wind: 8mph
Humidity: 93%   Direction: 290°WNW
Pressure: 29.97"   Gusts: NA
Location:  53.23°N, 0.43°W
Report Text: EGXW 230350Z 29007KT 9999 -RA SCT036 OVC050 09/08 Q1015 BLU
Loading
Personal Weather Stations






























Interactive Weather Map New forecast layout! Learn more

10-Day Weather Forecast

Advertisements
Track Severe Weather on mobile